sensor_id;sensor_type;location;lat;lon;timestamp;P1;durP1;ratioP1;P2;durP2;ratioP2
50495;SDS011;38806;51.554;5.704;2022-10-14T00:01:39;41.95;;;28.77;;
50495;SDS011;38806;51.554;5.704;2022-10-14T00:03:41;46.90;;;29.67;;
50495;SDS011;38806;51.554;5.704;2022-10-14T00:05:42;43.67;;;28.90;;
50495;SDS011;38806;51.554;5.704;2022-10-14T00:07:42;43.92;;;29.60;;
50495;SDS011;38806;51.554;5.704;2022-10-14T00:09:43;43.33;;;30.17;;
50495;SDS011;38806;51.554;5.704;2022-10-14T00:11:43;48.65;;;30.27;;
50495;SDS011;38806;51.554;5.704;2022-10-14T00:13:44;40.78;;;26.95;;
50495;SDS011;38806;51.554;5.704;2022-10-14T00:15:44;41.10;;;28.08;;
50495;SDS011;38806;51.554;5.704;2022-10-14T00:17:44;42.35;;;28.48;;
50495;SDS011;38806;51.554;5.704;2022-10-14T00:19:45;37.15;;;25.35;;
50495;SDS011;38806;51.554;5.704;2022-10-14T00:21:45;41.08;;;26.83;;
50495;SDS011;38806;51.554;5.704;2022-10-14T00:23:46;38.63;;;27.60;;
50495;SDS011;38806;51.554;5.704;2022-10-14T00:25:46;38.70;;;26.52;;
50495;SDS011;38806;51.554;5.704;2022-10-14T00:27:46;47.17;;;31.73;;
50495;SDS011;38806;51.554;5.704;2022-10-14T00:29:47;44.30;;;30.63;;
50495;SDS011;38806;51.554;5.704;2022-10-14T00:31:47;39.72;;;27.23;;
50495;SDS011;38806;51.554;5.704;2022-10-14T00:33:48;46.08;;;28.52;;
50495;SDS011;38806;51.554;5.704;2022-10-14T00:35:52;33.67;;;26.35;;
50495;SDS011;38806;51.554;5.704;2022-10-14T00:38:11;41.80;;;27.77;;
50495;SDS011;38806;51.554;5.704;2022-10-14T00:40:12;42.28;;;28.85;;
50495;SDS011;38806;51.554;5.704;2022-10-14T00:42:13;34.85;;;26.77;;
50495;SDS011;38806;51.554;5.704;2022-10-14T00:46:13;38.30;;;25.75;;
50495;SDS011;38806;51.554;5.704;2022-10-14T00:48:14;37.45;;;27.42;;
50495;SDS011;38806;51.554;5.704;2022-10-14T00:50:16;40.08;;;27.92;;
50495;SDS011;38806;51.554;5.704;2022-10-14T00:52:20;40.15;;;26.30;;
50495;SDS011;38806;51.554;5.704;2022-10-14T00:54:23;39.28;;;27.83;;
50495;SDS011;38806;51.554;5.704;2022-10-14T00:56:29;39.35;;;27.67;;
50495;SDS011;38806;51.554;5.704;2022-10-14T00:58:30;38.00;;;27.00;;
50495;SDS011;38806;51.554;5.704;2022-10-14T01:00:30;35.60;;;26.25;;
50495;SDS011;38806;51.554;5.704;2022-10-14T01:02:31;36.63;;;26.50;;
50495;SDS011;38806;51.554;5.704;2022-10-14T01:04:31;37.00;;;26.38;;
50495;SDS011;38806;51.554;5.704;2022-10-14T01:09:02;35.45;;;24.98;;
50495;SDS011;38806;51.554;5.704;2022-10-14T01:11:14;32.97;;;24.33;;
50495;SDS011;38806;51.554;5.704;2022-10-14T01:20:36;34.08;;;24.85;;
50495;SDS011;38806;51.554;5.704;2022-10-14T01:22:46;29.67;;;22.33;;
50495;SDS011;38806;51.554;5.704;2022-10-14T01:25:25;36.03;;;23.77;;
50495;SDS011;38806;51.554;5.704;2022-10-14T01:30:00;35.83;;;25.80;;
50495;SDS011;38806;51.554;5.704;2022-10-14T01:32:05;33.80;;;23.50;;
50495;SDS011;38806;51.554;5.704;2022-10-14T01:34:12;38.25;;;24.55;;
50495;SDS011;38806;51.554;5.704;2022-10-14T01:36:20;33.42;;;25.20;;
50495;SDS011;38806;51.554;5.704;2022-10-14T01:38:31;31.90;;;23.00;;
50495;SDS011;38806;51.554;5.704;2022-10-14T01:42:48;36.45;;;25.30;;
50495;SDS011;38806;51.554;5.704;2022-10-14T01:44:55;34.97;;;24.40;;
50495;SDS011;38806;51.554;5.704;2022-10-14T01:46:58;33.65;;;22.05;;
50495;SDS011;38806;51.554;5.704;2022-10-14T01:49:03;31.10;;;21.45;;
50495;SDS011;38806;51.554;5.704;2022-10-14T01:51:11;35.53;;;24.70;;
50495;SDS011;38806;51.554;5.704;2022-10-14T01:53:22;34.03;;;23.20;;
50495;SDS011;38806;51.554;5.704;2022-10-14T01:55:26;33.90;;;24.60;;
50495;SDS011;38806;51.554;5.704;2022-10-14T01:57:31;34.08;;;23.65;;
50495;SDS011;38806;51.554;5.704;2022-10-14T01:59:34;36.17;;;24.42;;
50495;SDS011;38806;51.554;5.704;2022-10-14T02:01:37;36.40;;;24.73;;
50495;SDS011;38806;51.554;5.704;2022-10-14T02:03:42;42.17;;;27.58;;
50495;SDS011;38806;51.554;5.704;2022-10-14T02:05:45;37.42;;;26.38;;
50495;SDS011;38806;51.554;5.704;2022-10-14T02:07:56;34.42;;;23.70;;
50495;SDS011;38806;51.554;5.704;2022-10-14T02:10:22;38.65;;;27.77;;
50495;SDS011;38806;51.554;5.704;2022-10-14T02:14:42;42.95;;;28.25;;
50495;SDS011;38806;51.554;5.704;2022-10-14T02:16:54;41.88;;;28.60;;
50495;SDS011;38806;51.554;5.704;2022-10-14T02:19:01;41.58;;;25.17;;
50495;SDS011;38806;51.554;5.704;2022-10-14T02:23:19;42.85;;;25.67;;
50495;SDS011;38806;51.554;5.704;2022-10-14T02:25:35;44.25;;;26.92;;
50495;SDS011;38806;51.554;5.704;2022-10-14T02:27:39;43.38;;;26.95;;
50495;SDS011;38806;51.554;5.704;2022-10-14T02:29:43;37.17;;;26.35;;
50495;SDS011;38806;51.554;5.704;2022-10-14T02:31:46;47.05;;;27.95;;
50495;SDS011;38806;51.554;5.704;2022-10-14T02:33:52;46.03;;;26.92;;
50495;SDS011;38806;51.554;5.704;2022-10-14T02:35:54;53.65;;;29.45;;
50495;SDS011;38806;51.554;5.704;2022-10-14T02:37:56;43.63;;;27.23;;
50495;SDS011;38806;51.554;5.704;2022-10-14T02:39:58;38.65;;;25.70;;
50495;SDS011;38806;51.554;5.704;2022-10-14T02:42:03;47.08;;;28.70;;
50495;SDS011;38806;51.554;5.704;2022-10-14T02:44:05;40.35;;;27.27;;
50495;SDS011;38806;51.554;5.704;2022-10-14T02:46:05;40.88;;;26.13;;
50495;SDS011;38806;51.554;5.704;2022-10-14T02:48:06;41.15;;;27.27;;
50495;SDS011;38806;51.554;5.704;2022-10-14T02:50:06;46.28;;;27.25;;
50495;SDS011;38806;51.554;5.704;2022-10-14T02:52:08;46.92;;;27.30;;
50495;SDS011;38806;51.554;5.704;2022-10-14T02:54:08;42.70;;;26.45;;
50495;SDS011;38806;51.554;5.704;2022-10-14T02:56:09;38.45;;;26.67;;
50495;SDS011;38806;51.554;5.704;2022-10-14T02:58:12;41.83;;;27.15;;
50495;SDS011;38806;51.554;5.704;2022-10-14T03:00:12;37.83;;;26.17;;
50495;SDS011;38806;51.554;5.704;2022-10-14T03:02:13;39.08;;;24.27;;
50495;SDS011;38806;51.554;5.704;2022-10-14T03:04:13;43.42;;;25.35;;
50495;SDS011;38806;51.554;5.704;2022-10-14T03:06:13;44.97;;;26.73;;
50495;SDS011;38806;51.554;5.704;2022-10-14T03:08:13;40.20;;;23.77;;
50495;SDS011;38806;51.554;5.704;2022-10-14T03:10:14;37.83;;;25.15;;
50495;SDS011;38806;51.554;5.704;2022-10-14T03:12:14;40.33;;;27.08;;
50495;SDS011;38806;51.554;5.704;2022-10-14T03:14:15;41.78;;;29.23;;
50495;SDS011;38806;51.554;5.704;2022-10-14T03:16:15;41.47;;;28.77;;
50495;SDS011;38806;51.554;5.704;2022-10-14T03:18:15;39.35;;;26.63;;
50495;SDS011;38806;51.554;5.704;2022-10-14T03:20:16;39.35;;;25.33;;
50495;SDS011;38806;51.554;5.704;2022-10-14T03:22:16;42.78;;;26.02;;
50495;SDS011;38806;51.554;5.704;2022-10-14T03:24:17;41.22;;;25.58;;
50495;SDS011;38806;51.554;5.704;2022-10-14T03:26:17;37.90;;;25.30;;
50495;SDS011;38806;51.554;5.704;2022-10-14T03:28:17;36.10;;;24.20;;
50495;SDS011;38806;51.554;5.704;2022-10-14T03:30:18;42.25;;;28.10;;
50495;SDS011;38806;51.554;5.704;2022-10-14T03:32:18;38.83;;;26.73;;
50495;SDS011;38806;51.554;5.704;2022-10-14T03:34:18;35.85;;;23.35;;
50495;SDS011;38806;51.554;5.704;2022-10-14T03:36:19;37.20;;;25.27;;
50495;SDS011;38806;51.554;5.704;2022-10-14T03:38:19;36.20;;;24.83;;
50495;SDS011;38806;51.554;5.704;2022-10-14T03:40:20;39.08;;;25.42;;
50495;SDS011;38806;51.554;5.704;2022-10-14T03:42:21;36.40;;;23.38;;
50495;SDS011;38806;51.554;5.704;2022-10-14T03:44:21;35.00;;;23.58;;
50495;SDS011;38806;51.554;5.704;2022-10-14T03:46:22;34.35;;;24.48;;
50495;SDS011;38806;51.554;5.704;2022-10-14T03:48:22;37.50;;;24.55;;
50495;SDS011;38806;51.554;5.704;2022-10-14T03:50:22;33.90;;;23.83;;
50495;SDS011;38806;51.554;5.704;2022-10-14T03:52:23;35.28;;;23.55;;
50495;SDS011;38806;51.554;5.704;2022-10-14T03:54:23;31.08;;;23.75;;
50495;SDS011;38806;51.554;5.704;2022-10-14T03:56:23;32.63;;;22.92;;
50495;SDS011;38806;51.554;5.704;2022-10-14T03:58:24;34.95;;;23.58;;
50495;SDS011;38806;51.554;5.704;2022-10-14T04:00:24;34.25;;;21.70;;
50495;SDS011;38806;51.554;5.704;2022-10-14T04:02:24;30.15;;;21.88;;
50495;SDS011;38806;51.554;5.704;2022-10-14T04:04:24;35.53;;;22.42;;
50495;SDS011;38806;51.554;5.704;2022-10-14T04:06:25;31.77;;;21.30;;
50495;SDS011;38806;51.554;5.704;2022-10-14T04:08:25;35.33;;;22.65;;
50495;SDS011;38806;51.554;5.704;2022-10-14T04:10:25;31.77;;;21.80;;
50495;SDS011;38806;51.554;5.704;2022-10-14T04:12:26;31.88;;;22.50;;
50495;SDS011;38806;51.554;5.704;2022-10-14T04:14:26;31.27;;;21.88;;
50495;SDS011;38806;51.554;5.704;2022-10-14T04:16:27;38.65;;;22.45;;
50495;SDS011;38806;51.554;5.704;2022-10-14T04:18:27;32.67;;;22.75;;
50495;SDS011;38806;51.554;5.704;2022-10-14T04:20:27;32.20;;;21.17;;
50495;SDS011;38806;51.554;5.704;2022-10-14T04:22:28;33.75;;;21.55;;
50495;SDS011;38806;51.554;5.704;2022-10-14T04:24:28;33.33;;;23.05;;
50495;SDS011;38806;51.554;5.704;2022-10-14T04:26:29;33.15;;;22.55;;
50495;SDS011;38806;51.554;5.704;2022-10-14T04:28:29;33.35;;;23.13;;
50495;SDS011;38806;51.554;5.704;2022-10-14T04:30:30;45.65;;;21.88;;
50495;SDS011;38806;51.554;5.704;2022-10-14T04:32:30;34.30;;;24.55;;
50495;SDS011;38806;51.554;5.704;2022-10-14T04:34:31;38.78;;;25.08;;
50495;SDS011;38806;51.554;5.704;2022-10-14T04:36:31;38.42;;;23.15;;
50495;SDS011;38806;51.554;5.704;2022-10-14T04:38:32;33.70;;;21.73;;
50495;SDS011;38806;51.554;5.704;2022-10-14T04:40:32;32.55;;;23.52;;
50495;SDS011;38806;51.554;5.704;2022-10-14T04:42:32;36.15;;;23.25;;
50495;SDS011;38806;51.554;5.704;2022-10-14T04:44:33;34.63;;;22.40;;
50495;SDS011;38806;51.554;5.704;2022-10-14T04:46:33;35.15;;;22.60;;
50495;SDS011;38806;51.554;5.704;2022-10-14T04:48:33;36.38;;;22.70;;
50495;SDS011;38806;51.554;5.704;2022-10-14T04:50:33;39.08;;;23.73;;
50495;SDS011;38806;51.554;5.704;2022-10-14T04:52:34;34.83;;;21.75;;
50495;SDS011;38806;51.554;5.704;2022-10-14T04:54:34;32.67;;;21.85;;
50495;SDS011;38806;51.554;5.704;2022-10-14T04:56:34;32.53;;;23.02;;
50495;SDS011;38806;51.554;5.704;2022-10-14T04:58:35;33.45;;;22.50;;
50495;SDS011;38806;51.554;5.704;2022-10-14T05:00:35;34.78;;;22.02;;
50495;SDS011;38806;51.554;5.704;2022-10-14T05:02:35;35.15;;;22.88;;
50495;SDS011;38806;51.554;5.704;2022-10-14T05:04:35;35.35;;;22.60;;
50495;SDS011;38806;51.554;5.704;2022-10-14T05:06:36;32.80;;;20.92;;
50495;SDS011;38806;51.554;5.704;2022-10-14T05:08:37;32.67;;;22.00;;
50495;SDS011;38806;51.554;5.704;2022-10-14T05:10:37;35.28;;;23.02;;
50495;SDS011;38806;51.554;5.704;2022-10-14T05:12:38;30.92;;;21.25;;
50495;SDS011;38806;51.554;5.704;2022-10-14T05:14:38;33.05;;;21.70;;
50495;SDS011;38806;51.554;5.704;2022-10-14T05:16:39;29.83;;;20.95;;
50495;SDS011;38806;51.554;5.704;2022-10-14T05:18:39;36.47;;;22.95;;
50495;SDS011;38806;51.554;5.704;2022-10-14T05:20:39;30.73;;;20.83;;
50495;SDS011;38806;51.554;5.704;2022-10-14T05:22:40;31.55;;;19.60;;
50495;SDS011;38806;51.554;5.704;2022-10-14T05:24:42;41.72;;;23.05;;
50495;SDS011;38806;51.554;5.704;2022-10-14T05:26:42;29.80;;;21.48;;
50495;SDS011;38806;51.554;5.704;2022-10-14T05:28:43;37.72;;;23.35;;
50495;SDS011;38806;51.554;5.704;2022-10-14T05:30:43;30.95;;;21.60;;
50495;SDS011;38806;51.554;5.704;2022-10-14T05:32:43;30.08;;;21.33;;
50495;SDS011;38806;51.554;5.704;2022-10-14T05:34:44;34.42;;;21.88;;
50495;SDS011;38806;51.554;5.704;2022-10-14T05:36:44;38.97;;;21.90;;
50495;SDS011;38806;51.554;5.704;2022-10-14T05:38:44;33.42;;;22.35;;
50495;SDS011;38806;51.554;5.704;2022-10-14T05:40:51;35.78;;;21.38;;
50495;SDS011;38806;51.554;5.704;2022-10-14T05:42:55;33.10;;;21.67;;
50495;SDS011;38806;51.554;5.704;2022-10-14T05:44:55;31.13;;;21.35;;
50495;SDS011;38806;51.554;5.704;2022-10-14T05:46:55;30.95;;;20.90;;
50495;SDS011;38806;51.554;5.704;2022-10-14T05:48:56;32.60;;;22.02;;
50495;SDS011;38806;51.554;5.704;2022-10-14T05:50:57;36.17;;;23.60;;
50495;SDS011;38806;51.554;5.704;2022-10-14T05:53:01;37.97;;;22.60;;
50495;SDS011;38806;51.554;5.704;2022-10-14T05:55:01;37.42;;;23.85;;
50495;SDS011;38806;51.554;5.704;2022-10-14T05:57:02;28.33;;;20.75;;
50495;SDS011;38806;51.554;5.704;2022-10-14T05:59:02;31.48;;;21.15;;
50495;SDS011;38806;51.554;5.704;2022-10-14T06:01:04;32.35;;;20.65;;
50495;SDS011;38806;51.554;5.704;2022-10-14T06:03:05;34.60;;;21.90;;
50495;SDS011;38806;51.554;5.704;2022-10-14T06:05:06;32.88;;;20.20;;
50495;SDS011;38806;51.554;5.704;2022-10-14T06:07:06;33.63;;;22.35;;
50495;SDS011;38806;51.554;5.704;2022-10-14T06:09:09;28.55;;;20.08;;
50495;SDS011;38806;51.554;5.704;2022-10-14T06:11:10;32.95;;;20.75;;
50495;SDS011;38806;51.554;5.704;2022-10-14T06:13:10;32.20;;;22.30;;
50495;SDS011;38806;51.554;5.704;2022-10-14T06:15:11;31.08;;;20.90;;
50495;SDS011;38806;51.554;5.704;2022-10-14T06:17:11;29.52;;;20.42;;
50495;SDS011;38806;51.554;5.704;2022-10-14T06:19:11;33.25;;;21.67;;
50495;SDS011;38806;51.554;5.704;2022-10-14T06:21:12;29.85;;;20.35;;
50495;SDS011;38806;51.554;5.704;2022-10-14T06:23:12;33.25;;;21.30;;
50495;SDS011;38806;51.554;5.704;2022-10-14T06:25:12;32.22;;;20.85;;
50495;SDS011;38806;51.554;5.704;2022-10-14T06:27:12;34.05;;;23.10;;
50495;SDS011;38806;51.554;5.704;2022-10-14T06:29:13;31.02;;;21.63;;
50495;SDS011;38806;51.554;5.704;2022-10-14T06:31:14;26.27;;;19.85;;
50495;SDS011;38806;51.554;5.704;2022-10-14T06:33:14;28.92;;;20.88;;
50495;SDS011;38806;51.554;5.704;2022-10-14T06:35:14;31.60;;;21.67;;
50495;SDS011;38806;51.554;5.704;2022-10-14T06:37:15;27.92;;;20.20;;
50495;SDS011;38806;51.554;5.704;2022-10-14T06:39:15;29.27;;;19.88;;
50495;SDS011;38806;51.554;5.704;2022-10-14T06:41:15;27.98;;;20.20;;
50495;SDS011;38806;51.554;5.704;2022-10-14T06:43:15;28.35;;;19.45;;
50495;SDS011;38806;51.554;5.704;2022-10-14T06:45:16;30.15;;;20.70;;
50495;SDS011;38806;51.554;5.704;2022-10-14T06:47:16;28.00;;;19.90;;
50495;SDS011;38806;51.554;5.704;2022-10-14T06:49:16;31.65;;;20.83;;
50495;SDS011;38806;51.554;5.704;2022-10-14T06:51:16;29.50;;;20.13;;
50495;SDS011;38806;51.554;5.704;2022-10-14T06:53:17;26.65;;;18.33;;
50495;SDS011;38806;51.554;5.704;2022-10-14T06:55:17;28.48;;;19.90;;
50495;SDS011;38806;51.554;5.704;2022-10-14T06:57:17;29.40;;;18.63;;
50495;SDS011;38806;51.554;5.704;2022-10-14T06:59:18;26.60;;;19.75;;
50495;SDS011;38806;51.554;5.704;2022-10-14T07:01:18;28.73;;;19.70;;
50495;SDS011;38806;51.554;5.704;2022-10-14T07:03:19;29.33;;;18.80;;
50495;SDS011;38806;51.554;5.704;2022-10-14T07:05:19;26.95;;;19.02;;
50495;SDS011;38806;51.554;5.704;2022-10-14T07:07:19;28.70;;;19.17;;
50495;SDS011;38806;51.554;5.704;2022-10-14T07:09:20;28.55;;;18.90;;
50495;SDS011;38806;51.554;5.704;2022-10-14T07:11:20;26.05;;;18.48;;
50495;SDS011;38806;51.554;5.704;2022-10-14T07:13:20;27.15;;;18.88;;
50495;SDS011;38806;51.554;5.704;2022-10-14T07:15:21;26.85;;;18.30;;
50495;SDS011;38806;51.554;5.704;2022-10-14T07:17:21;27.98;;;18.88;;
50495;SDS011;38806;51.554;5.704;2022-10-14T07:19:21;22.40;;;16.55;;
50495;SDS011;38806;51.554;5.704;2022-10-14T07:21:22;24.60;;;16.20;;
50495;SDS011;38806;51.554;5.704;2022-10-14T07:23:22;23.20;;;16.63;;
50495;SDS011;38806;51.554;5.704;2022-10-14T07:25:22;19.35;;;14.57;;
50495;SDS011;38806;51.554;5.704;2022-10-14T07:27:23;22.13;;;16.35;;
50495;SDS011;38806;51.554;5.704;2022-10-14T07:29:23;21.17;;;14.57;;
50495;SDS011;38806;51.554;5.704;2022-10-14T07:31:23;28.67;;;16.45;;
50495;SDS011;38806;51.554;5.704;2022-10-14T07:33:25;19.67;;;14.52;;
50495;SDS011;38806;51.554;5.704;2022-10-14T07:35:25;18.33;;;14.48;;
50495;SDS011;38806;51.554;5.704;2022-10-14T07:37:26;24.65;;;14.60;;
50495;SDS011;38806;51.554;5.704;2022-10-14T07:39:26;18.10;;;13.43;;
50495;SDS011;38806;51.554;5.704;2022-10-14T07:41:27;19.77;;;13.93;;
50495;SDS011;38806;51.554;5.704;2022-10-14T07:43:28;19.60;;;14.43;;
50495;SDS011;38806;51.554;5.704;2022-10-14T07:45:28;20.55;;;13.95;;
50495;SDS011;38806;51.554;5.704;2022-10-14T07:47:34;15.48;;;12.95;;
50495;SDS011;38806;51.554;5.704;2022-10-14T07:49:34;17.98;;;12.00;;
50495;SDS011;38806;51.554;5.704;2022-10-14T07:51:34;19.90;;;15.65;;
50495;SDS011;38806;51.554;5.704;2022-10-14T07:53:35;16.88;;;11.65;;
50495;SDS011;38806;51.554;5.704;2022-10-14T07:55:36;18.17;;;12.88;;
50495;SDS011;38806;51.554;5.704;2022-10-14T07:57:43;18.77;;;12.30;;
50495;SDS011;38806;51.554;5.704;2022-10-14T07:59:43;18.33;;;13.00;;
50495;SDS011;38806;51.554;5.704;2022-10-14T08:01:47;17.40;;;13.15;;
50495;SDS011;38806;51.554;5.704;2022-10-14T08:03:49;19.33;;;12.07;;
50495;SDS011;38806;51.554;5.704;2022-10-14T08:05:49;14.80;;;11.07;;
50495;SDS011;38806;51.554;5.704;2022-10-14T08:07:58;17.77;;;12.93;;
50495;SDS011;38806;51.554;5.704;2022-10-14T08:09:59;16.95;;;11.77;;
50495;SDS011;38806;51.554;5.704;2022-10-14T08:11:59;16.95;;;12.60;;
50495;SDS011;38806;51.554;5.704;2022-10-14T08:13:59;17.67;;;12.10;;
50495;SDS011;38806;51.554;5.704;2022-10-14T08:16:00;16.02;;;11.50;;
50495;SDS011;38806;51.554;5.704;2022-10-14T08:18:00;15.52;;;11.60;;
50495;SDS011;38806;51.554;5.704;2022-10-14T08:20:01;14.27;;;11.43;;
50495;SDS011;38806;51.554;5.704;2022-10-14T08:22:01;14.80;;;12.00;;
50495;SDS011;38806;51.554;5.704;2022-10-14T08:24:01;14.38;;;11.18;;
50495;SDS011;38806;51.554;5.704;2022-10-14T08:26:02;16.58;;;12.50;;
50495;SDS011;38806;51.554;5.704;2022-10-14T08:28:03;15.30;;;11.48;;
50495;SDS011;38806;51.554;5.704;2022-10-14T08:30:03;14.52;;;11.57;;
50495;SDS011;38806;51.554;5.704;2022-10-14T08:32:04;14.60;;;11.27;;
50495;SDS011;38806;51.554;5.704;2022-10-14T08:34:05;14.02;;;10.80;;
50495;SDS011;38806;51.554;5.704;2022-10-14T08:36:05;16.20;;;11.02;;
50495;SDS011;38806;51.554;5.704;2022-10-14T08:38:06;12.80;;;10.35;;
50495;SDS011;38806;51.554;5.704;2022-10-14T08:40:07;15.07;;;11.18;;
50495;SDS011;38806;51.554;5.704;2022-10-14T08:42:13;12.63;;;10.23;;
50495;SDS011;38806;51.554;5.704;2022-10-14T08:44:22;12.60;;;10.63;;
50495;SDS011;38806;51.554;5.704;2022-10-14T08:46:38;14.25;;;9.07;;
50495;SDS011;38806;51.554;5.704;2022-10-14T08:49:09;12.40;;;9.55;;
50495;SDS011;38806;51.554;5.704;2022-10-14T08:51:15;14.52;;;11.95;;
50495;SDS011;38806;51.554;5.704;2022-10-14T08:53:39;13.65;;;10.27;;
50495;SDS011;38806;51.554;5.704;2022-10-14T08:55:42;13.57;;;11.63;;
50495;SDS011;38806;51.554;5.704;2022-10-14T08:57:49;14.88;;;11.77;;
50495;SDS011;38806;51.554;5.704;2022-10-14T08:59:54;13.15;;;10.35;;
50495;SDS011;38806;51.554;5.704;2022-10-14T09:01:56;16.13;;;10.88;;
50495;SDS011;38806;51.554;5.704;2022-10-14T09:04:11;13.63;;;10.35;;
50495;SDS011;38806;51.554;5.704;2022-10-14T09:06:15;18.05;;;10.48;;
50495;SDS011;38806;51.554;5.704;2022-10-14T09:08:21;14.13;;;9.77;;
50495;SDS011;38806;51.554;5.704;2022-10-14T09:10:36;15.20;;;9.80;;
50495;SDS011;38806;51.554;5.704;2022-10-14T09:12:39;14.20;;;9.88;;
50495;SDS011;38806;51.554;5.704;2022-10-14T09:14:43;13.98;;;11.32;;
50495;SDS011;38806;51.554;5.704;2022-10-14T09:16:47;16.30;;;11.07;;
50495;SDS011;38806;51.554;5.704;2022-10-14T09:20:56;12.02;;;9.32;;
50495;SDS011;38806;51.554;5.704;2022-10-14T09:25:05;12.15;;;8.55;;
50495;SDS011;38806;51.554;5.704;2022-10-14T09:27:15;20.52;;;9.45;;
50495;SDS011;38806;51.554;5.704;2022-10-14T09:31:31;13.25;;;9.57;;
50495;SDS011;38806;51.554;5.704;2022-10-14T09:33:31;12.93;;;10.18;;
50495;SDS011;38806;51.554;5.704;2022-10-14T09:35:38;12.65;;;9.80;;
50495;SDS011;38806;51.554;5.704;2022-10-14T09:37:41;11.50;;;8.98;;
50495;SDS011;38806;51.554;5.704;2022-10-14T09:39:42;11.10;;;8.32;;
50495;SDS011;38806;51.554;5.704;2022-10-14T09:41:43;13.85;;;9.27;;
50495;SDS011;38806;51.554;5.704;2022-10-14T09:46:18;14.00;;;9.63;;
50495;SDS011;38806;51.554;5.704;2022-10-14T09:48:24;14.45;;;9.02;;
50495;SDS011;38806;51.554;5.704;2022-10-14T09:50:39;12.52;;;10.35;;
50495;SDS011;38806;51.554;5.704;2022-10-14T09:52:48;12.88;;;9.90;;
50495;SDS011;38806;51.554;5.704;2022-10-14T09:54:55;13.95;;;10.15;;
50495;SDS011;38806;51.554;5.704;2022-10-14T09:57:07;12.98;;;9.02;;
50495;SDS011;38806;51.554;5.704;2022-10-14T09:59:14;12.65;;;9.48;;
50495;SDS011;38806;51.554;5.704;2022-10-14T10:01:19;15.32;;;10.25;;
50495;SDS011;38806;51.554;5.704;2022-10-14T10:03:26;12.65;;;9.55;;
50495;SDS011;38806;51.554;5.704;2022-10-14T10:05:34;11.32;;;9.50;;
50495;SDS011;38806;51.554;5.704;2022-10-14T10:07:35;10.20;;;8.40;;
50495;SDS011;38806;51.554;5.704;2022-10-14T10:09:35;13.65;;;9.10;;
50495;SDS011;38806;51.554;5.704;2022-10-14T10:11:36;12.25;;;9.32;;
50495;SDS011;38806;51.554;5.704;2022-10-14T10:13:40;12.60;;;9.70;;
50495;SDS011;38806;51.554;5.704;2022-10-14T10:15:55;12.27;;;10.07;;
50495;SDS011;38806;51.554;5.704;2022-10-14T10:17:56;16.83;;;10.38;;
50495;SDS011;38806;51.554;5.704;2022-10-14T10:22:23;12.00;;;10.43;;
50495;SDS011;38806;51.554;5.704;2022-10-14T10:24:25;12.30;;;10.32;;
50495;SDS011;38806;51.554;5.704;2022-10-14T10:26:27;12.85;;;10.57;;
50495;SDS011;38806;51.554;5.704;2022-10-14T10:28:30;11.88;;;9.63;;
50495;SDS011;38806;51.554;5.704;2022-10-14T10:30:32;12.93;;;9.02;;
50495;SDS011;38806;51.554;5.704;2022-10-14T10:37:01;17.92;;;11.30;;
50495;SDS011;38806;51.554;5.704;2022-10-14T10:41:26;10.30;;;8.48;;
50495;SDS011;38806;51.554;5.704;2022-10-14T10:50:46;11.90;;;8.73;;
50495;SDS011;38806;51.554;5.704;2022-10-14T10:55:39;13.82;;;9.57;;
50495;SDS011;38806;51.554;5.704;2022-10-14T11:00:06;12.20;;;9.00;;
50495;SDS011;38806;51.554;5.704;2022-10-14T11:06:39;11.88;;;8.23;;
50495;SDS011;38806;51.554;5.704;2022-10-14T11:09:16;12.20;;;9.00;;
50495;SDS011;38806;51.554;5.704;2022-10-14T11:11:43;9.57;;;7.70;;
50495;SDS011;38806;51.554;5.704;2022-10-14T11:19:08;7.65;;;6.03;;
50495;SDS011;38806;51.554;5.704;2022-10-14T11:30:22;11.20;;;8.30;;
50495;SDS011;38806;51.554;5.704;2022-10-14T11:46:01;9.00;;;6.30;;
50495;SDS011;38806;51.554;5.704;2022-10-14T11:50:43;11.60;;;8.52;;
50495;SDS011;38806;51.554;5.704;2022-10-14T11:52:53;11.55;;;8.52;;
50495;SDS011;38806;51.554;5.704;2022-10-14T11:55:02;17.10;;;9.77;;
50495;SDS011;38806;51.554;5.704;2022-10-14T11:57:29;11.63;;;8.10;;
50495;SDS011;38806;51.554;5.704;2022-10-14T11:59:47;12.02;;;8.73;;
50495;SDS011;38806;51.554;5.704;2022-10-14T12:01:53;15.00;;;9.27;;
50495;SDS011;38806;51.554;5.704;2022-10-14T12:04:05;10.68;;;8.60;;
50495;SDS011;38806;51.554;5.704;2022-10-14T12:08:19;11.90;;;8.95;;
50495;SDS011;38806;51.554;5.704;2022-10-14T12:10:31;13.75;;;8.48;;
50495;SDS011;38806;51.554;5.704;2022-10-14T12:12:34;11.13;;;9.57;;
50495;SDS011;38806;51.554;5.704;2022-10-14T12:14:41;12.43;;;8.25;;
50495;SDS011;38806;51.554;5.704;2022-10-14T12:16:45;11.75;;;9.05;;
50495;SDS011;38806;51.554;5.704;2022-10-14T12:18:54;12.40;;;8.07;;
50495;SDS011;38806;51.554;5.704;2022-10-14T12:20:57;12.15;;;9.63;;
50495;SDS011;38806;51.554;5.704;2022-10-14T12:22:59;13.38;;;10.07;;
50495;SDS011;38806;51.554;5.704;2022-10-14T12:25:05;13.93;;;10.00;;
50495;SDS011;38806;51.554;5.704;2022-10-14T12:27:10;12.27;;;9.30;;
50495;SDS011;38806;51.554;5.704;2022-10-14T12:29:13;13.32;;;8.88;;
50495;SDS011;38806;51.554;5.704;2022-10-14T12:31:33;12.60;;;9.48;;
50495;SDS011;38806;51.554;5.704;2022-10-14T12:33:40;12.38;;;10.70;;
50495;SDS011;38806;51.554;5.704;2022-10-14T12:36:29;14.05;;;8.85;;
50495;SDS011;38806;51.554;5.704;2022-10-14T12:38:30;12.27;;;9.70;;
50495;SDS011;38806;51.554;5.704;2022-10-14T12:40:33;12.82;;;10.57;;
50495;SDS011;38806;51.554;5.704;2022-10-14T12:42:37;11.40;;;9.27;;
50495;SDS011;38806;51.554;5.704;2022-10-14T12:44:53;14.88;;;9.75;;
50495;SDS011;38806;51.554;5.704;2022-10-14T12:46:55;12.52;;;8.93;;
50495;SDS011;38806;51.554;5.704;2022-10-14T12:48:55;10.98;;;9.05;;
50495;SDS011;38806;51.554;5.704;2022-10-14T12:51:04;11.07;;;8.32;;
50495;SDS011;38806;51.554;5.704;2022-10-14T12:53:15;10.27;;;9.02;;
50495;SDS011;38806;51.554;5.704;2022-10-14T12:55:21;12.32;;;9.52;;
50495;SDS011;38806;51.554;5.704;2022-10-14T12:57:25;12.50;;;8.50;;
50495;SDS011;38806;51.554;5.704;2022-10-14T12:59:32;11.55;;;9.52;;
50495;SDS011;38806;51.554;5.704;2022-10-14T13:01:37;13.75;;;8.68;;
50495;SDS011;38806;51.554;5.704;2022-10-14T13:03:46;15.75;;;10.15;;
50495;SDS011;38806;51.554;5.704;2022-10-14T13:06:24;11.77;;;9.43;;
50495;SDS011;38806;51.554;5.704;2022-10-14T13:08:34;12.43;;;9.38;;
50495;SDS011;38806;51.554;5.704;2022-10-14T13:12:38;13.68;;;9.07;;
50495;SDS011;38806;51.554;5.704;2022-10-14T13:17:00;10.15;;;8.10;;
50495;SDS011;38806;51.554;5.704;2022-10-14T13:19:03;13.77;;;10.13;;
50495;SDS011;38806;51.554;5.704;2022-10-14T13:21:04;12.70;;;9.77;;
50495;SDS011;38806;51.554;5.704;2022-10-14T13:23:30;11.45;;;8.35;;
50495;SDS011;38806;51.554;5.704;2022-10-14T13:25:36;10.52;;;7.18;;
50495;SDS011;38806;51.554;5.704;2022-10-14T13:34:03;9.95;;;8.00;;
50495;SDS011;38806;51.554;5.704;2022-10-14T13:36:13;11.98;;;8.20;;
50495;SDS011;38806;51.554;5.704;2022-10-14T13:38:23;12.15;;;8.52;;
50495;SDS011;38806;51.554;5.704;2022-10-14T13:42:30;12.32;;;9.57;;
50495;SDS011;38806;51.554;5.704;2022-10-14T13:44:33;10.43;;;8.35;;
50495;SDS011;38806;51.554;5.704;2022-10-14T13:46:35;11.80;;;8.60;;